Time;durP1;ratioP1;P1;durP2;ratioP2;P2;SDS_P1;SDS_P2;PMS_P1;PMS_P2;Temp;Humidity;BMP_temperature;BMP_pressure;BME280_temperature;BME280_humidity;BME280_pressure;Samples;Min_cycle;Max_cycle;Signal;HPM_P1;HPM_P2
2022/01/29 00:02:06;;;;;;;4.18;0.80;;;26.10;99.90;;;;;;4984084;28;20034;-73
2022/01/29 00:04:35;;;;;;;3.45;0.57;;;26.10;99.90;;;;;;4982656;28;20023;-71
2022/01/29 00:07:03;;;;;;;5.75;0.98;;;26.10;99.90;;;;;;4982301;28;20468;-73
2022/01/29 00:09:31;;;;;;;2.65;0.80;;;26.10;99.90;;;;;;4982278;28;20022;-72
2022/01/29 00:11:58;;;;;;;3.03;0.75;;;26.10;99.90;;;;;;4986310;28;20022;-72
2022/01/29 00:14:26;;;;;;;6.80;1.23;;;26.10;99.90;;;;;;4987538;28;20046;-73
2022/01/29 00:16:54;;;;;;;2.00;0.60;;;26.10;99.90;;;;;;4986316;28;20027;-73
2022/01/29 00:19:21;;;;;;;2.53;0.75;;;26.20;99.90;;;;;;4985936;28;20033;-73
2022/01/29 00:21:49;;;;;;;2.40;0.93;;;26.10;99.90;;;;;;4987484;28;20022;-74
2022/01/29 00:24:17;;;;;;;5.07;1.35;;;26.20;99.90;;;;;;4986244;28;20537;-73
2022/01/29 00:26:44;;;;;;;2.40;0.55;;;26.30;99.90;;;;;;4985403;28;20125;-72
2022/01/29 00:29:20;;;;;;;5.80;1.20;;;26.30;99.90;;;;;;4985617;28;20037;-73
2022/01/29 00:31:47;;;;;;;;;;;26.50;99.90;;;;;;4985731;28;20026;-73
2022/01/29 00:34:14;;;;;;;1.67;0.47;;;26.50;99.90;;;;;;4986715;28;20375;-72
2022/01/29 00:36:42;;;;;;;5.28;0.77;;;26.70;99.90;;;;;;4986870;28;20031;-73
2022/01/29 00:39:10;;;;;;;1.58;0.65;;;27.00;99.90;;;;;;4987175;28;20554;-73
2022/01/29 00:41:37;;;;;;;5.72;0.85;;;27.00;99.90;;;;;;4987721;28;20024;-73
2022/01/29 00:44:05;;;;;;;5.22;1.25;;;27.00;99.90;;;;;;4984977;28;20058;-73
2022/01/29 00:46:33;;;;;;;1.77;0.63;;;26.80;99.90;;;;;;4986474;28;20034;-73
2022/01/29 00:49:01;;;;;;;4.97;0.68;;;26.90;99.90;;;;;;4986676;28;20073;-73
2022/01/29 00:51:28;;;;;;;2.67;0.70;;;27.00;99.90;;;;;;4985027;28;20029;-73
2022/01/29 00:53:56;;;;;;;1.55;0.55;;;27.30;99.90;;;;;;4986049;28;20026;-71
2022/01/29 00:56:24;;;;;;;2.97;0.57;;;27.40;99.90;;;;;;4986816;28;20022;-72
2022/01/29 00:58:51;;;;;;;2.53;0.40;;;27.40;99.90;;;;;;4984615;28;20062;-73
2022/01/29 01:01:19;;;;;;;0.73;0.30;;;27.50;99.90;;;;;;4986147;28;20022;-73
2022/01/29 01:03:47;;;;;;;4.38;1.15;;;27.60;99.90;;;;;;4985826;28;20454;-73
2022/01/29 01:06:15;;;;;;;3.42;0.60;;;27.80;99.90;;;;;;4986573;28;20038;-72
2022/01/29 01:08:42;;;;;;;5.40;0.98;;;28.00;99.90;;;;;;4985667;28;20366;-75
2022/01/29 01:11:10;;;;;;;5.22;0.63;;;28.00;99.90;;;;;;4976947;28;20624;-73
2022/01/29 01:13:38;;;;;;;2.60;0.70;;;27.90;99.90;;;;;;4984442;28;20073;-72
2022/01/29 01:16:06;;;;;;;2.28;1.02;;;28.00;99.90;;;;;;4984808;28;20030;-73
2022/01/29 01:18:34;;;;;;;8.35;0.70;;;28.00;99.90;;;;;;4984071;28;20031;-73
2022/01/29 01:21:01;;;;;;;4.70;0.95;;;28.10;99.90;;;;;;4984724;28;20018;-74
2022/01/29 01:23:29;;;;;;;8.95;0.82;;;28.00;99.90;;;;;;4989362;28;20390;-72
2022/01/29 01:25:58;;;;;;;3.95;0.82;;;27.80;99.90;;;;;;4985241;28;20044;-73
2022/01/29 01:28:25;;;;;;;2.92;0.73;;;28.10;99.90;;;;;;4983893;28;20447;-74
2022/01/29 01:30:53;;;;;;;1.83;0.60;;;28.20;99.90;;;;;;4985236;28;20065;-74
2022/01/29 01:33:21;;;;;;;2.65;0.70;;;28.10;99.90;;;;;;4983797;28;20073;-74
2022/01/29 01:35:53;;;;;;;2.28;0.70;;;28.00;99.90;;;;;;4979488;28;20498;-74
2022/01/29 01:39:00;;;;;;;6.43;0.95;;;28.10;99.90;;;;;;4979221;28;20023;-74
2022/01/29 01:41:20;;;;;;;5.88;1.00;;;27.90;99.90;;;;;;4987847;28;20046;-74
2022/01/29 01:43:47;;;;;;;4.60;0.60;;;28.10;99.90;;;;;;4981091;28;20094;-73
2022/01/29 01:46:15;;;;;;;2.63;0.60;;;28.30;99.90;;;;;;4978999;28;20030;-74
2022/01/29 01:48:43;;;;;;;3.50;0.68;;;28.60;99.90;;;;;;4979391;28;20423;-74
2022/01/29 01:51:11;;;;;;;3.33;0.60;;;28.70;99.90;;;;;;4984038;28;20034;-74
2022/01/29 01:53:39;;;;;;;4.32;0.82;;;28.70;99.90;;;;;;4984501;28;20077;-74
2022/01/29 01:56:07;;;;;;;3.47;0.77;;;28.50;99.90;;;;;;4985690;28;20105;-74
2022/01/29 01:58:34;;;;;;;2.40;0.80;;;28.50;99.90;;;;;;4984216;28;20062;-74
2022/01/29 02:01:02;;;;;;;5.47;1.15;;;28.50;99.90;;;;;;4983811;28;20057;-74
2022/01/29 02:03:30;;;;;;;3.40;0.77;;;28.70;99.90;;;;;;4984879;28;20026;-74
2022/01/29 02:06:00;;;;;;;5.70;0.90;;;28.70;99.90;;;;;;4984530;28;20037;-74
2022/01/29 02:08:27;;;;;;;2.28;0.60;;;28.70;99.90;;;;;;4983263;28;20384;-74
2022/01/29 02:11:03;;;;;;;2.20;1.15;;;28.80;99.90;;;;;;4984667;28;20019;-74
2022/01/29 02:13:31;;;;;;;4.03;0.63;;;28.90;99.90;;;;;;4983666;28;20022;-74
2022/01/29 02:16:01;;;;;;;2.50;0.68;;;28.70;99.90;;;;;;4985900;28;20018;-75
2022/01/29 02:18:28;;;;;;;4.20;1.30;;;28.90;99.90;;;;;;4984293;28;20019;-75
2022/01/29 02:20:58;;;;;;;1.95;0.95;;;28.70;99.90;;;;;;4990301;28;20456;-74
2022/01/29 02:23:26;;;;;;;3.83;0.60;;;28.80;99.90;;;;;;4984597;28;20046;-74
2022/01/29 02:25:54;;;;;;;2.72;0.80;;;28.60;99.90;;;;;;4985353;28;20042;-75
2022/01/29 02:28:23;;;;;;;7.30;1.08;;;28.60;99.90;;;;;;4982796;28;20042;-75
2022/01/29 02:31:00;;;;;;;3.60;1.08;;;28.70;99.90;;;;;;4981730;28;20029;-75
2022/01/29 02:33:29;;;;;;;4.75;1.33;;;28.90;99.90;;;;;;4983920;28;20052;-75
2022/01/29 02:35:58;;;;;;;4.25;0.95;;;29.20;99.90;;;;;;4977261;28;20019;-75
2022/01/29 02:38:27;;;;;;;3.53;0.90;;;29.40;99.90;;;;;;4974542;28;20030;-74
2022/01/29 02:41:05;;;;;;;5.95;0.88;;;29.70;99.90;;;;;;4974901;28;20088;-75
2022/01/29 02:43:48;;;;;;;1.50;0.40;;;29.60;99.90;;;;;;4974651;28;20082;-74
2022/01/29 02:46:29;;;;;;;3.28;0.93;;;29.30;99.90;;;;;;4974661;28;20038;-73
2022/01/29 02:48:57;;;;;;;3.35;1.08;;;29.50;99.90;;;;;;4974437;28;20085;-73
2022/01/29 02:51:25;;;;;;;2.85;1.05;;;29.50;99.90;;;;;;4974677;28;20030;-76
2022/01/29 02:53:52;;;;;;;3.80;0.75;;;29.40;99.90;;;;;;4974600;28;20376;-73
2022/01/29 02:56:20;;;;;;;5.85;1.08;;;29.70;99.90;;;;;;4974430;28;20105;-74
2022/01/29 02:58:48;;;;;;;4.07;0.93;;;29.80;99.90;;;;;;4974425;28;20019;-74
2022/01/29 03:01:16;;;;;;;1.80;0.60;;;29.90;99.90;;;;;;4974473;28;20035;-74
2022/01/29 03:03:43;;;;;;;4.78;1.02;;;29.90;99.90;;;;;;4973136;28;20538;-75
2022/01/29 03:06:11;;;;;;;5.40;0.73;;;29.80;99.90;;;;;;4975287;28;20113;-74
2022/01/29 03:08:39;;;;;;;5.30;1.00;;;29.80;99.90;;;;;;4988028;28;20133;-75
2022/01/29 03:11:07;;;;;;;3.08;0.82;;;29.90;99.90;;;;;;4981568;28;20031;-75
2022/01/29 03:13:35;;;;;;;5.82;1.40;;;29.50;99.90;;;;;;4981110;28;20025;-75
2022/01/29 03:16:02;;;;;;;4.00;1.20;;;29.70;99.90;;;;;;4982700;28;20387;-74
2022/01/29 03:18:30;;;;;;;3.47;0.90;;;30.00;99.90;;;;;;4982939;28;20038;-73
2022/01/29 03:20:58;;;;;;;4.65;1.15;;;30.30;99.90;;;;;;4983248;28;20045;-75
2022/01/29 03:23:25;;;;;;;3.63;1.00;;;30.40;99.90;;;;;;4991657;28;20133;-75
2022/01/29 03:25:53;;;;;;;3.13;0.98;;;30.30;99.90;;;;;;4993662;28;20080;-73
2022/01/29 03:28:21;;;;;;;3.20;1.00;;;30.40;99.90;;;;;;4993804;28;20476;-73
2022/01/29 03:30:48;;;;;;;6.60;1.13;;;30.20;99.90;;;;;;4980615;28;20026;-72
2022/01/29 03:33:16;;;;;;;2.38;0.68;;;30.20;99.90;;;;;;4972234;28;20105;-72
2022/01/29 03:35:47;;;;;;;3.22;0.40;;;30.20;99.90;;;;;;4972175;28;20102;-73
2022/01/29 03:38:15;;;;;;;3.08;0.80;;;30.20;99.90;;;;;;4971721;28;20023;-74
2022/01/29 03:40:45;;;;;;;4.45;1.30;;;30.20;99.90;;;;;;4972359;28;20543;-74
2022/01/29 03:43:15;;;;;;;3.28;0.98;;;29.70;99.90;;;;;;4972188;28;20023;-73
2022/01/29 03:45:42;;;;;;;3.97;0.90;;;29.50;99.90;;;;;;4973084;28;20392;-73
2022/01/29 03:48:10;;;;;;;4.68;1.23;;;29.10;99.90;;;;;;4976777;28;20026;-73
2022/01/29 03:50:38;;;;;;;3.92;0.90;;;29.50;99.90;;;;;;4978005;28;20023;-73
2022/01/29 03:53:06;;;;;;;3.70;0.80;;;29.90;99.90;;;;;;4991967;28;20037;-73
2022/01/29 03:55:33;;;;;;;4.63;0.75;;;30.10;99.90;;;;;;4980163;28;20109;-74
2022/01/29 03:58:01;;;;;;;3.28;1.35;;;30.20;99.90;;;;;;4978298;28;20041;-74
2022/01/29 04:00:29;;;;;;;1.83;0.68;;;30.30;99.90;;;;;;4979276;28;20228;-73
2022/01/29 04:02:56;;;;;;;7.85;0.90;;;30.30;99.90;;;;;;4981696;28;20058;-72
2022/01/29 04:05:26;;;;;;;2.63;0.93;;;30.20;99.90;;;;;;4985181;28;20531;-72
2022/01/29 04:07:54;;;;;;;5.07;0.98;;;30.10;99.90;;;;;;4984585;28;20118;-73
2022/01/29 04:10:23;;;;;;;5.35;1.10;;;30.20;99.90;;;;;;4987025;28;20065;-70
2022/01/29 04:12:52;;;;;;;4.00;0.90;;;30.00;99.90;;;;;;4987691;28;20031;-73
2022/01/29 04:15:20;;;;;;;3.53;1.00;;;30.00;99.90;;;;;;4985875;28;20102;-73
2022/01/29 04:17:48;;;;;;;3.97;0.80;;;30.10;99.90;;;;;;4983508;28;20015;-72
2022/01/29 04:20:16;;;;;;;3.97;1.15;;;30.10;99.90;;;;;;4977411;28;20065;-71
2022/01/29 04:22:45;;;;;;;3.90;1.10;;;30.40;99.90;;;;;;4977066;28;20042;-72
2022/01/29 04:25:12;;;;;;;2.70;0.70;;;30.40;99.90;;;;;;4977343;28;20026;-71
2022/01/29 04:27:43;;;;;;;3.40;0.73;;;30.20;99.90;;;;;;4977096;28;20114;-72
2022/01/29 04:30:24;;;;;;;4.32;0.93;;;30.00;99.90;;;;;;4977080;28;20022;-72
2022/01/29 04:35:20;;;;;;;7.95;0.93;;;29.90;99.90;;;;;;4977324;28;20057;-72
2022/01/29 04:37:51;;;;;;;4.57;1.08;;;30.00;99.90;;;;;;4977225;28;20353;-72
2022/01/29 04:40:20;;;;;;;4.88;0.85;;;30.10;99.90;;;;;;4976876;28;20106;-74
2022/01/29 04:42:48;;;;;;;3.80;1.13;;;30.20;99.90;;;;;;4977089;28;20022;-71
2022/01/29 04:45:16;;;;;;;4.85;1.00;;;30.30;99.90;;;;;;4976921;28;20081;-71
2022/01/29 04:47:43;;;;;;;7.45;1.05;;;29.90;99.90;;;;;;4976777;28;20085;-72
2022/01/29 04:50:11;;;;;;;2.83;0.70;;;29.60;99.90;;;;;;4977434;28;20089;-73
2022/01/29 04:52:39;;;;;;;4.40;1.02;;;29.10;99.90;;;;;;4976771;28;20027;-73
2022/01/29 04:55:08;;;;;;;3.83;0.73;;;28.70;99.90;;;;;;4976764;28;20019;-73
2022/01/29 04:57:37;;;;;;;3.65;1.30;;;28.50;99.90;;;;;;4975122;28;20439;-73
2022/01/29 05:00:11;;;;;;;5.68;1.10;;;28.40;99.90;;;;;;4976743;28;20046;-74
2022/01/29 05:02:39;;;;;;;8.52;1.33;;;28.20;99.90;;;;;;4976562;28;20061;-72
2022/01/29 05:05:07;;;;;;;8.93;1.42;;;28.30;99.90;;;;;;4976470;28;20027;-73
2022/01/29 05:07:35;;;;;;;4.43;1.10;;;28.10;99.90;;;;;;4976430;28;20042;-70
2022/01/29 05:10:03;;;;;;;6.75;1.88;;;28.20;99.90;;;;;;4976666;28;20062;-74
2022/01/29 05:12:42;;;;;;;7.53;1.15;;;28.30;99.90;;;;;;4976600;28;20026;-70
2022/01/29 05:15:25;;;;;;;5.38;1.05;;;28.50;99.90;;;;;;4976979;28;20019;-72
2022/01/29 05:28:56;;;;;;;7.03;1.40;;;28.80;99.90;;;;;;4989084;28;20110;-70
2022/01/29 05:31:24;;;;;;;5.32;1.23;;;28.80;99.90;;;;;;4989729;28;20026;-71
2022/01/29 05:33:52;;;;;;;8.05;1.10;;;28.70;99.90;;;;;;4995495;28;20054;-72
2022/01/29 05:36:19;;;;;;;10.20;2.00;;;28.40;99.90;;;;;;4994835;28;20018;-72
2022/01/29 05:38:47;;;;;;;4.18;1.13;;;28.10;99.90;;;;;;4992800;28;20026;-70
2022/01/29 05:41:15;;;;;;;5.65;1.50;;;27.70;99.90;;;;;;4995398;28;20480;-71
2022/01/29 05:43:43;;;;;;;12.10;2.28;;;27.40;99.90;;;;;;4995074;28;20368;-72
2022/01/29 05:46:12;;;;;;;6.97;1.23;;;27.40;99.90;;;;;;4993842;28;20087;-72
2022/01/29 05:48:41;;;;;;;5.07;1.10;;;27.30;99.90;;;;;;4995224;28;20021;-72
2022/01/29 05:51:11;;;;;;;10.65;1.92;;;27.20;99.90;;;;;;4995234;28;20030;-73
2022/01/29 05:53:39;;;;;;;7.28;1.17;;;27.00;99.90;;;;;;4995297;28;20045;-72
2022/01/29 05:56:07;;;;;;;8.02;2.25;;;26.90;99.90;;;;;;4995158;28;20530;-72
2022/01/29 05:58:36;;;;;;;5.30;1.90;;;26.80;99.90;;;;;;4995189;28;20113;-71
2022/01/29 06:01:04;;;;;;;8.77;1.60;;;26.90;99.90;;;;;;4995091;28;20022;-73
2022/01/29 06:03:32;;;;;;;13.18;1.80;;;26.90;99.90;;;;;;4993123;28;20030;-72
2022/01/29 06:06:00;;;;;;;9.57;2.20;;;26.80;99.90;;;;;;4994384;28;20034;-71
2022/01/29 06:08:28;;;;;;;8.80;2.97;;;26.60;99.90;;;;;;4993641;28;20026;-72
2022/01/29 06:10:55;;;;;;;10.27;2.72;;;26.40;99.90;;;;;;4994999;28;20033;-71
2022/01/29 06:13:23;;;;;;;13.57;3.47;;;26.30;99.90;;;;;;4994885;28;20037;-71
2022/01/29 06:15:52;;;;;;;14.18;1.95;;;26.30;99.90;;;;;;4994622;28;20062;-70
2022/01/29 06:18:23;;;;;;;9.45;1.95;;;26.30;99.90;;;;;;4994665;28;20036;-73
2022/01/29 06:20:58;;;;;;;8.35;1.77;;;26.30;99.90;;;;;;4994432;28;20030;-73
2022/01/29 06:23:30;;;;;;;9.27;2.20;;;26.40;99.90;;;;;;4992976;28;20475;-74
2022/01/29 06:26:00;;;;;;;9.63;2.05;;;26.50;99.90;;;;;;4993652;28;20428;-71
2022/01/29 06:28:28;;;;;;;7.95;1.90;;;26.50;99.90;;;;;;4994487;28;20041;-71
2022/01/29 06:30:56;;;;;;;10.25;2.05;;;26.50;99.90;;;;;;4994341;28;20030;-71
2022/01/29 06:33:24;;;;;;;8.38;1.63;;;26.30;99.90;;;;;;4994325;28;20057;-72
2022/01/29 06:35:52;;;;;;;10.20;2.10;;;26.20;99.90;;;;;;4994416;28;20534;-71
2022/01/29 06:38:21;;;;;;;11.38;2.05;;;26.20;99.90;;;;;;4994414;28;20038;-70
2022/01/29 06:40:48;;;;;;;11.18;2.83;;;26.20;99.90;;;;;;4994057;28;20076;-71
2022/01/29 06:43:16;;;;;;;15.15;2.42;;;25.90;99.90;;;;;;4994165;28;20030;-70
2022/01/29 06:45:45;;;;;;;14.30;2.60;;;25.90;99.90;;;;;;4982493;28;20425;-69
2022/01/29 06:48:15;;;;;;;10.43;2.08;;;25.90;99.90;;;;;;4974871;28;20023;-72
2022/01/29 06:50:43;;;;;;;11.63;3.17;;;25.90;99.90;;;;;;4974673;28;20026;-70
2022/01/29 06:53:11;;;;;;;12.23;2.45;;;25.70;99.90;;;;;;4974244;28;20053;-73
2022/01/29 06:55:39;;;;;;;12.02;2.33;;;25.70;99.90;;;;;;4975155;28;20047;-71
2022/01/29 06:58:06;;;;;;;11.00;1.95;;;25.50;99.90;;;;;;4980880;28;20495;-71
2022/01/29 07:00:34;;;;;;;12.25;2.40;;;25.40;99.90;;;;;;4991427;28;20344;-72
2022/01/29 07:03:02;;;;;;;12.52;2.47;;;25.20;99.90;;;;;;4992985;28;20100;-71
2022/01/29 07:05:30;;;;;;;14.30;3.20;;;25.10;99.90;;;;;;4992865;28;20015;-71
2022/01/29 07:07:58;;;;;;;9.45;2.65;;;25.10;99.90;;;;;;4983420;28;20042;-72
2022/01/29 07:10:26;;;;;;;15.27;3.15;;;25.10;99.90;;;;;;4982746;28;20027;-73
2022/01/29 07:12:54;;;;;;;14.15;2.40;;;25.00;99.90;;;;;;4983169;28;20026;-70
2022/01/29 07:15:21;;;;;;;20.17;2.88;;;25.10;99.90;;;;;;4982766;28;20452;-70
2022/01/29 07:17:49;;;;;;;9.90;2.17;;;25.00;99.90;;;;;;4980812;28;20419;-70
2022/01/29 07:20:17;;;;;;;7.57;2.60;;;24.90;99.90;;;;;;4983578;28;20495;-71
2022/01/29 07:22:44;;;;;;;12.60;2.10;;;24.80;99.90;;;;;;4986854;28;20055;-70
2022/01/29 07:25:12;;;;;;;14.02;3.13;;;24.80;99.90;;;;;;4987245;28;20025;-70
2022/01/29 07:27:40;;;;;;;8.10;2.08;;;24.60;99.90;;;;;;4986347;28;20151;-71
2022/01/29 07:30:08;;;;;;;13.55;2.28;;;24.60;99.90;;;;;;4985250;28;20367;-70
2022/01/29 07:32:41;;;;;;;15.65;2.40;;;24.60;99.90;;;;;;4986635;28;20030;-72
2022/01/29 07:35:09;;;;;;;12.98;2.28;;;24.60;99.90;;;;;;4987212;28;20025;-71
2022/01/29 07:37:37;;;;;;;8.30;1.98;;;24.50;99.90;;;;;;4992257;28;20026;-71
2022/01/29 07:40:06;;;;;;;11.27;2.38;;;24.40;99.90;;;;;;4996672;28;20063;-71
2022/01/29 07:42:34;;;;;;;18.33;3.47;;;24.40;99.90;;;;;;4996877;28;20022;-72
2022/01/29 07:45:02;;;;;;;13.45;2.55;;;24.30;99.90;;;;;;4996120;28;20109;-71
2022/01/29 07:47:30;;;;;;;11.88;2.50;;;24.30;99.90;;;;;;4994444;28;20050;-72
2022/01/29 07:49:57;;;;;;;12.77;3.70;;;24.30;99.90;;;;;;4996509;28;20540;-72
2022/01/29 07:52:25;;;;;;;15.02;2.92;;;24.20;99.90;;;;;;4988803;28;20495;-72
2022/01/29 07:54:53;;;;;;;20.35;2.70;;;24.20;99.90;;;;;;4986384;28;20143;-72
2022/01/29 07:57:21;;;;;;;12.15;2.72;;;24.20;99.90;;;;;;4984438;28;20026;-73
2022/01/29 07:59:48;;;;;;;16.52;2.92;;;24.20;99.90;;;;;;4985520;28;20393;-70
2022/01/29 08:02:16;;;;;;;14.60;2.47;;;24.20;99.90;;;;;;4990384;28;20383;-71
2022/01/29 08:04:44;;;;;;;13.38;2.20;;;24.10;99.90;;;;;;4996533;28;20464;-71
2022/01/29 08:07:11;;;;;;;25.88;3.63;;;24.10;99.90;;;;;;4997039;28;20070;-70
2022/01/29 08:09:39;;;;;;;16.45;2.30;;;24.10;99.90;;;;;;4997029;28;20076;-72
2022/01/29 08:12:07;;;;;;;14.00;2.13;;;24.10;99.90;;;;;;4996635;28;20022;-71
2022/01/29 08:14:35;;;;;;;15.07;3.15;;;24.00;99.90;;;;;;4997182;28;20483;-72
2022/01/29 08:17:03;;;;;;;13.68;2.15;;;24.10;99.90;;;;;;4997160;28;20460;-72
2022/01/29 08:19:34;;;;;;;17.98;3.38;;;24.00;99.90;;;;;;4996805;28;20498;-71
2022/01/29 08:22:01;;;;;;;15.38;2.92;;;24.00;99.90;;;;;;4991540;28;20511;-72
2022/01/29 08:24:30;;;;;;;13.50;2.90;;;23.90;99.90;;;;;;4977252;28;20047;-71
2022/01/29 08:26:58;;;;;;;9.40;2.08;;;23.90;99.90;;;;;;4977016;28;20079;-71
2022/01/29 08:29:25;;;;;;;11.32;2.38;;;23.80;99.90;;;;;;4976812;28;20031;-71
2022/01/29 08:31:53;;;;;;;14.18;3.13;;;23.90;99.90;;;;;;4980607;28;20034;-72
2022/01/29 08:34:20;;;;;;;13.40;2.10;;;23.80;99.90;;;;;;4987055;28;20070;-72
2022/01/29 08:36:49;;;;;;;11.02;2.42;;;23.70;99.90;;;;;;4986644;28;20545;-72
2022/01/29 08:39:17;;;;;;;11.90;2.38;;;23.60;99.90;;;;;;4985533;28;20027;-71
2022/01/29 08:41:44;;;;;;;13.43;2.33;;;23.60;99.90;;;;;;4984736;28;20401;-71
2022/01/29 08:44:12;;;;;;;13.27;2.83;;;23.60;99.90;;;;;;4982470;28;20034;-71
2022/01/29 08:46:40;;;;;;;12.90;3.33;;;23.60;99.90;;;;;;4988541;28;20038;-72
2022/01/29 08:49:07;;;;;;;9.48;2.25;;;23.50;99.90;;;;;;4990075;28;20130;-71
2022/01/29 08:51:36;;;;;;;13.38;2.70;;;23.50;99.90;;;;;;4983639;28;20538;-72
2022/01/29 08:54:04;;;;;;;8.52;1.95;;;23.40;99.90;;;;;;4987551;28;20472;-71
2022/01/29 08:56:32;;;;;;;14.73;2.65;;;23.40;99.90;;;;;;4988495;28;20031;-71
2022/01/29 08:59:00;;;;;;;15.57;2.45;;;23.40;99.90;;;;;;4990958;28;20471;-71
2022/01/29 09:01:28;;;;;;;10.70;2.47;;;23.30;99.90;;;;;;4993411;28;20057;-71
2022/01/29 09:03:56;;;;;;;11.02;2.60;;;23.20;99.90;;;;;;4992970;28;20042;-72
2022/01/29 09:06:23;;;;;;;14.35;2.63;;;23.30;99.90;;;;;;4992323;28;20390;-71
2022/01/29 09:08:51;;;;;;;16.70;2.70;;;23.20;99.90;;;;;;4993064;28;20018;-71
2022/01/29 09:11:20;;;;;;;18.23;3.03;;;23.20;99.90;;;;;;4993161;28;20098;-71
2022/01/29 09:13:48;;;;;;;9.48;1.52;;;23.20;99.90;;;;;;4994129;28;20387;-72
2022/01/29 09:16:15;;;;;;;16.05;3.33;;;23.10;99.90;;;;;;4993252;28;20483;-71
2022/01/29 09:18:43;;;;;;;11.82;3.08;;;23.10;99.90;;;;;;4992815;28;20109;-71
2022/01/29 09:21:12;;;;;;;12.65;2.15;;;23.10;99.90;;;;;;4992778;28;20030;-71
2022/01/29 09:23:41;;;;;;;9.63;1.98;;;23.10;99.90;;;;;;4992564;28;20057;-72
2022/01/29 09:26:08;;;;;;;18.52;2.75;;;23.10;99.90;;;;;;4992589;28;20377;-72
2022/01/29 09:28:36;;;;;;;12.02;3.22;;;23.10;99.90;;;;;;4992551;28;20021;-72
2022/01/29 09:31:04;;;;;;;15.45;2.58;;;23.00;99.90;;;;;;4992752;28;20049;-72
2022/01/29 09:33:31;;;;;;;15.15;2.83;;;23.00;99.90;;;;;;4992617;28;20106;-72
2022/01/29 09:35:59;;;;;;;17.42;2.85;;;23.00;99.90;;;;;;4992593;28;20026;-71
2022/01/29 09:38:27;;;;;;;16.98;2.95;;;23.00;99.90;;;;;;4991994;28;20379;-72
2022/01/29 09:40:56;;;;;;;22.30;3.13;;;23.00;99.90;;;;;;4992312;28;20393;-71
2022/01/29 09:43:28;;;;;;;10.65;2.45;;;23.00;99.90;;;;;;4991883;28;20100;-71
2022/01/29 09:45:56;;;;;;;19.80;3.05;;;22.90;99.90;;;;;;4992153;28;20030;-72
2022/01/29 09:48:25;;;;;;;11.50;2.05;;;22.90;99.90;;;;;;4992427;28;20034;-71
2022/01/29 09:50:53;;;;;;;18.65;2.65;;;22.90;99.90;;;;;;4992458;28;20582;-71
2022/01/29 09:53:21;;;;;;;18.60;2.17;;;22.90;99.90;;;;;;4990402;28;20037;-71
2022/01/29 09:55:50;;;;;;;8.52;1.92;;;22.90;99.90;;;;;;4992271;28;20014;-71
2022/01/29 09:58:18;;;;;;;15.63;2.03;;;22.90;99.90;;;;;;4991235;28;20069;-71
2022/01/29 10:00:46;;;;;;;9.73;2.40;;;22.90;99.90;;;;;;4991109;28;20113;-72
2022/01/29 10:03:14;;;;;;;7.55;1.83;;;22.90;99.90;;;;;;4991383;28;20034;-71
2022/01/29 10:05:53;;;;;;;14.07;3.22;;;22.90;99.90;;;;;;4989795;28;20073;-71
2022/01/29 10:08:22;;;;;;;12.63;2.33;;;22.90;99.90;;;;;;4991336;28;20368;-71
2022/01/29 10:10:55;;;;;;;12.82;2.13;;;22.80;99.90;;;;;;4992430;28;20015;-71
2022/01/29 10:13:22;;;;;;;14.57;1.98;;;22.90;99.90;;;;;;4991949;28;20105;-71
2022/01/29 10:15:52;;;;;;;15.15;3.03;;;22.80;99.90;;;;;;4992213;28;20042;-71
2022/01/29 10:18:23;;;;;;;17.02;3.33;;;22.80;99.90;;;;;;4991610;28;20101;-71
2022/01/29 10:20:56;;;;;;;10.75;2.65;;;22.90;99.90;;;;;;4991370;28;20022;-70
2022/01/29 10:23:30;;;;;;;15.95;2.55;;;22.90;99.90;;;;;;4991714;28;20050;-71
2022/01/29 10:25:58;;;;;;;15.13;2.63;;;22.80;99.90;;;;;;4991378;28;20027;-71
2022/01/29 10:28:26;;;;;;;12.48;2.33;;;22.80;99.90;;;;;;4992501;28;20030;-71
2022/01/29 10:31:05;;;;;;;12.95;2.60;;;22.90;99.90;;;;;;4991883;28;20027;-71
2022/01/29 10:33:34;;;;;;;14.02;3.17;;;22.90;99.90;;;;;;4992277;28;20031;-71
2022/01/29 10:36:15;;;;;;;9.45;2.55;;;22.80;99.90;;;;;;4992590;28;20014;-71
2022/01/29 10:38:48;;;;;;;14.10;1.95;;;22.90;99.90;;;;;;4992755;28;20025;-71
2022/01/29 10:41:31;;;;;;;6.70;2.40;;;22.80;99.90;;;;;;4992560;28;20097;-71
2022/01/29 10:44:00;;;;;;;8.45;2.58;;;22.90;99.90;;;;;;4992611;28;20089;-73
2022/01/29 10:46:29;;;;;;;11.93;3.30;;;22.90;99.90;;;;;;4992486;28;20026;-72
2022/01/29 10:48:58;;;;;;;14.27;2.47;;;22.90;99.90;;;;;;4992168;28;20054;-72
2022/01/29 10:51:26;;;;;;;13.35;2.72;;;22.90;99.90;;;;;;4992695;28;20026;-71
2022/01/29 10:53:55;;;;;;;12.23;2.60;;;22.80;99.90;;;;;;4992339;28;20026;-72
2022/01/29 10:56:25;;;;;;;13.82;2.03;;;22.80;99.90;;;;;;4992567;28;20392;-72
2022/01/29 10:58:53;;;;;;;9.45;1.92;;;22.80;99.90;;;;;;4991902;28;20050;-71
2022/01/29 11:01:23;;;;;;;9.55;2.65;;;22.80;99.90;;;;;;4990812;28;20479;-71
2022/01/29 11:03:54;;;;;;;10.60;2.50;;;22.80;99.90;;;;;;4990083;28;20109;-72
2022/01/29 11:06:31;;;;;;;13.75;1.95;;;22.80;99.90;;;;;;4988783;28;20034;-72
2022/01/29 11:08:59;;;;;;;10.23;2.33;;;22.70;99.90;;;;;;4990578;28;20036;-72
2022/01/29 11:11:27;;;;;;;9.98;1.83;;;22.80;99.90;;;;;;4990608;28;20066;-71
2022/01/29 11:13:56;;;;;;;11.57;2.03;;;22.70;99.90;;;;;;4990321;28;20033;-72
2022/01/29 11:16:23;;;;;;;11.20;3.22;;;22.70;99.90;;;;;;4990734;28;20027;-72
2022/01/29 11:18:51;;;;;;;16.70;3.15;;;22.70;99.90;;;;;;4990617;28;20344;-71
2022/01/29 11:21:19;;;;;;;18.70;2.55;;;22.80;99.90;;;;;;4990550;28;20019;-72
2022/01/29 11:23:47;;;;;;;10.05;2.17;;;22.70;99.90;;;;;;4987331;28;20407;-72
2022/01/29 11:26:15;;;;;;;10.05;2.03;;;22.70;99.90;;;;;;4984828;28;20081;-71
2022/01/29 11:28:42;;;;;;;10.52;2.22;;;22.70;99.90;;;;;;4986760;28;20029;-72
2022/01/29 11:31:16;;;;;;;11.98;2.58;;;22.70;99.90;;;;;;4984589;28;20085;-71
2022/01/29 11:34:13;;;;;;;10.10;2.05;;;22.70;99.90;;;;;;4985248;28;20037;-72
2022/01/29 11:36:50;;;;;;;9.65;1.55;;;22.70;99.90;;;;;;4970927;28;20042;-72
2022/01/29 11:39:20;;;;;;;15.85;2.60;;;22.60;99.90;;;;;;4979578;28;20030;-73
2022/01/29 11:42:14;;;;;;;8.85;1.70;;;22.60;99.90;;;;;;4979028;28;20042;-71
2022/01/29 11:44:42;;;;;;;18.25;2.47;;;22.60;99.90;;;;;;4982011;28;20057;-72
2022/01/29 11:47:25;;;;;;;14.57;2.38;;;22.60;99.90;;;;;;4983809;28;20362;-72
2022/01/29 11:50:14;;;;;;;8.50;2.08;;;22.60;99.90;;;;;;4981519;28;20038;-72
2022/01/29 11:52:55;;;;;;;8.02;2.35;;;22.60;99.90;;;;;;4963240;28;20034;-72
2022/01/29 11:55:47;;;;;;;17.73;2.45;;;22.60;99.90;;;;;;4972523;28;20088;-73
2022/01/29 11:58:17;;;;;;;10.70;2.40;;;22.50;99.90;;;;;;4982560;28;20057;-70
2022/01/29 12:00:48;;;;;;;14.13;1.67;;;22.60;99.90;;;;;;4981596;28;20023;-72
2022/01/29 12:03:39;;;;;;;12.82;1.33;;;22.50;99.90;;;;;;4980345;28;20046;-73
2022/01/29 12:06:18;;;;;;;8.77;2.33;;;22.50;99.90;;;;;;4983145;28;20460;-72
2022/01/29 12:09:08;;;;;;;12.68;1.75;;;22.50;99.90;;;;;;4982931;28;20034;-72
2022/01/29 12:11:41;;;;;;;15.13;2.28;;;22.50;99.90;;;;;;4983788;28;20050;-68
2022/01/29 12:14:16;;;;;;;13.00;2.38;;;22.50;99.90;;;;;;4981546;28;20101;-69
2022/01/29 12:16:55;;;;;;;11.52;1.33;;;22.50;99.90;;;;;;4983559;28;20062;-71
2022/01/29 12:19:43;;;;;;;8.80;2.08;;;22.50;99.90;;;;;;4983253;28;20092;-72
2022/01/29 12:22:21;;;;;;;14.75;1.88;;;22.40;99.90;;;;;;4985912;28;20369;-71
2022/01/29 12:24:53;;;;;;;10.98;2.25;;;22.40;99.90;;;;;;4981596;28;20027;-71
2022/01/29 12:27:22;;;;;;;15.18;2.53;;;22.40;99.90;;;;;;4984547;28;20104;-71
2022/01/29 12:29:51;;;;;;;17.17;3.17;;;22.40;99.90;;;;;;4983724;28;20051;-69
2022/01/29 12:32:18;;;;;;;10.73;2.20;;;22.40;99.90;;;;;;4985052;28;20025;-69
2022/01/29 12:34:55;;;;;;;15.38;2.40;;;22.40;99.90;;;;;;4986473;28;20542;-69
2022/01/29 12:37:23;;;;;;;18.67;2.67;;;22.40;99.90;;;;;;4985873;28;20017;-71
2022/01/29 12:40:05;;;;;;;14.27;2.80;;;22.40;99.90;;;;;;4985723;28;20029;-72
2022/01/29 12:42:54;;;;;;;6.32;1.67;;;22.40;99.90;;;;;;4985450;28;20022;-71
2022/01/29 12:45:27;;;;;;;9.20;1.80;;;22.40;99.90;;;;;;4987148;28;20030;-71
2022/01/29 12:48:09;;;;;;;12.40;1.60;;;22.40;99.90;;;;;;4987131;28;20486;-68
2022/01/29 12:50:39;;;;;;;18.35;3.15;;;22.40;99.90;;;;;;4987132;28;20352;-70
2022/01/29 12:53:20;;;;;;;13.18;2.00;;;22.40;99.90;;;;;;4985874;28;20536;-70
2022/01/29 12:56:07;;;;;;;15.77;2.63;;;22.50;99.90;;;;;;4975516;28;20068;-70
2022/01/29 12:59:14;;;;;;;12.45;1.90;;;22.40;99.90;;;;;;4975544;28;20023;-71
2022/01/29 13:01:44;;;;;;;16.45;2.22;;;22.50;99.90;;;;;;4976107;28;20074;-71
2022/01/29 13:04:18;;;;;;;8.48;2.28;;;22.50;99.90;;;;;;4976642;28;20473;-71
2022/01/29 13:06:48;;;;;;;13.32;3.33;;;22.40;99.90;;;;;;4976622;28;20479;-70
2022/01/29 13:09:21;;;;;;;13.48;2.30;;;22.40;99.90;;;;;;4976476;28;20476;-70
2022/01/29 13:12:02;;;;;;;9.77;2.17;;;22.40;99.90;;;;;;4976493;28;20535;-70